Time;durP1;ratioP1;P1;durP2;ratioP2;P2;SDS_P1;SDS_P2;PMS_P1;PMS_P2;Temp;Humidity;BMP_temperature;BMP_pressure;BME280_temperature;BME280_humidity;BME280_pressure;Samples;Min_cycle;Max_cycle;Signal;HPM_P1;HPM_P2
2022/03/29 00:02:02;;;;;;;4.00;2.57;;;20.50;35.60;;;;;;5057001;28;20271;-66
2022/03/29 00:04:28;;;;;;;3.60;2.20;;;20.50;35.50;;;;;;5063027;28;20431;-65
2022/03/29 00:06:54;;;;;;;4.37;2.57;;;20.50;35.60;;;;;;5051743;28;20975;-68
2022/03/29 00:09:21;;;;;;;7.73;2.80;;;20.50;35.60;;;;;;5068502;28;20188;-67
2022/03/29 00:11:47;;;;;;;4.00;2.37;;;20.40;35.50;;;;;;5071048;28;20532;-66
2022/03/29 00:14:13;;;;;;;4.50;2.70;;;20.50;35.70;;;;;;5067028;28;20473;-66
2022/03/29 00:16:39;;;;;;;10.63;2.40;;;20.40;35.60;;;;;;5051879;28;20828;-66
2022/03/29 00:19:06;;;;;;;9.30;2.53;;;20.40;35.60;;;;;;5051251;28;20502;-67
2022/03/29 00:21:31;;;;;;;2.63;2.07;;;20.40;35.70;;;;;;5064763;28;20439;-66
2022/03/29 00:23:57;;;;;;;3.13;2.20;;;20.50;35.80;;;;;;5070024;28;20930;-67
2022/03/29 00:26:23;;;;;;;5.37;2.73;;;20.50;35.80;;;;;;5051467;28;20664;-65
2022/03/29 00:28:49;;;;;;;3.93;2.33;;;20.40;35.80;;;;;;5051301;28;20689;-69
2022/03/29 00:31:19;;;;;;;3.63;2.27;;;20.40;35.80;;;;;;5051337;28;20203;-67
2022/03/29 00:33:49;;;;;;;4.23;2.60;;;20.40;35.80;;;;;;5068340;28;20180;-67
2022/03/29 00:36:15;;;;;;;3.00;2.30;;;20.40;35.80;;;;;;5058998;28;20459;-66
2022/03/29 00:38:42;;;;;;;7.70;2.60;;;20.40;35.80;;;;;;5073142;28;20513;-69
2022/03/29 00:41:07;;;;;;;4.37;2.40;;;20.40;35.80;;;;;;5066532;28;20532;-67
2022/03/29 00:43:33;;;;;;;4.70;2.40;;;20.40;35.90;;;;;;5076638;28;20506;-67
2022/03/29 00:45:59;;;;;;;3.73;2.40;;;20.40;36.10;;;;;;5064600;28;20182;-68
2022/03/29 00:48:25;;;;;;;4.20;2.50;;;20.40;35.70;;;;;;5077990;28;20183;-66
2022/03/29 00:50:53;;;;;;;4.00;2.50;;;20.60;36.40;;;;;;5074247;28;20220;-66
2022/03/29 00:53:22;;;;;;;4.47;2.10;;;20.40;36.10;;;;;;5077809;28;20270;-69
2022/03/29 00:55:50;;;;;;;4.20;2.50;;;20.40;36.30;;;;;;5043726;28;20479;-67
2022/03/29 00:58:16;;;;;;;4.60;2.63;;;20.40;36.80;;;;;;5069275;28;20457;-68
2022/03/29 01:00:42;;;;;;;4.50;2.50;;;20.40;36.40;;;;;;5077289;28;20483;-70
2022/03/29 01:03:08;;;;;;;8.57;2.83;;;20.40;36.30;;;;;;5076736;28;20419;-67
2022/03/29 01:05:34;;;;;;;5.00;3.00;;;20.40;36.50;;;;;;5065208;28;20837;-67
2022/03/29 01:08:01;;;;;;;4.57;2.80;;;20.40;37.20;;;;;;5078940;28;20433;-66
2022/03/29 01:10:27;;;;;;;4.13;2.53;;;20.40;37.10;;;;;;5076479;28;20192;-66
2022/03/29 01:12:55;;;;;;;6.33;2.67;;;20.40;37.00;;;;;;5059388;28;20438;-65
2022/03/29 01:15:23;;;;;;;5.70;2.67;;;20.40;37.20;;;;;;5069716;28;20883;-65
2022/03/29 01:17:49;;;;;;;7.67;2.40;;;20.40;37.30;;;;;;5077187;28;20756;-68
2022/03/29 01:20:27;;;;;;;4.23;2.70;;;20.40;37.30;;;;;;5075751;28;20431;-66
2022/03/29 01:22:53;;;;;;;4.83;2.20;;;20.40;37.20;;;;;;5075859;28;20425;-68
2022/03/29 01:25:23;;;;;;;14.50;2.80;;;20.40;37.00;;;;;;5066307;28;20469;-65
2022/03/29 01:27:51;;;;;;;7.17;3.00;;;20.30;37.00;;;;;;5057779;28;20502;-67
2022/03/29 01:30:18;;;;;;;4.70;2.50;;;20.30;36.90;;;;;;5057232;28;20412;-68
2022/03/29 01:32:49;;;;;;;2.87;2.00;;;20.30;36.80;;;;;;5070868;28;20426;-67
2022/03/29 01:35:20;;;;;;;4.70;2.93;;;20.30;36.90;;;;;;5065141;28;20455;-66
2022/03/29 01:37:47;;;;;;;4.20;2.23;;;20.30;37.00;;;;;;5057611;28;20423;-65
2022/03/29 01:40:16;;;;;;;5.73;2.60;;;20.30;36.90;;;;;;5057168;28;20461;-66
2022/03/29 01:42:55;;;;;;;7.10;2.90;;;20.30;37.10;;;;;;5074030;28;20511;-66
2022/03/29 01:45:24;;;;;;;6.13;2.70;;;20.30;36.70;;;;;;5066250;28;20571;-65
2022/03/29 01:47:50;;;;;;;6.07;2.50;;;20.30;36.70;;;;;;5078694;28;20423;-66
2022/03/29 01:50:16;;;;;;;3.27;2.27;;;20.30;36.90;;;;;;5066483;28;20438;-65
2022/03/29 01:52:45;;;;;;;5.70;3.00;;;20.30;36.90;;;;;;5066093;28;20349;-66
2022/03/29 01:55:12;;;;;;;4.90;2.80;;;20.30;36.90;;;;;;5074177;28;20819;-65
2022/03/29 01:57:38;;;;;;;4.17;2.40;;;20.30;36.90;;;;;;5059694;28;20931;-66
2022/03/29 02:02:50;;;;;;;3.77;2.47;;;20.30;37.00;;;;;;5064273;28;20418;-67
2022/03/29 02:05:17;;;;;;;4.93;2.60;;;20.30;37.00;;;;;;5074165;28;20407;-66
2022/03/29 02:07:43;;;;;;;6.83;2.20;;;20.30;37.00;;;;;;5064182;28;20188;-68
2022/03/29 02:10:09;;;;;;;5.00;2.50;;;20.30;37.10;;;;;;5053520;28;20414;-68
2022/03/29 02:12:35;;;;;;;5.60;2.87;;;20.30;37.00;;;;;;5070952;28;20446;-66
2022/03/29 02:15:01;;;;;;;4.27;2.33;;;20.30;37.10;;;;;;5073431;28;20454;-66
2022/03/29 02:17:26;;;;;;;3.10;2.13;;;20.20;37.10;;;;;;5070993;28;20191;-66
2022/03/29 02:19:52;;;;;;;5.63;2.40;;;20.20;37.00;;;;;;5073383;28;20176;-68
2022/03/29 02:22:18;;;;;;;4.30;2.13;;;20.20;37.10;;;;;;5059861;28;20664;-66
2022/03/29 02:24:44;;;;;;;4.30;2.60;;;20.30;37.20;;;;;;5073537;28;20188;-67
2022/03/29 02:27:10;;;;;;;17.20;2.70;;;20.20;37.30;;;;;;5061928;28;20618;-67
2022/03/29 02:29:35;;;;;;;4.37;2.20;;;20.20;37.40;;;;;;5073235;28;20172;-66
2022/03/29 02:32:01;;;;;;;4.50;2.40;;;20.20;37.50;;;;;;5069886;28;20789;-69
2022/03/29 02:34:27;;;;;;;5.80;2.13;;;20.20;37.50;;;;;;5065651;28;20177;-68
2022/03/29 02:36:52;;;;;;;4.17;2.70;;;20.20;37.50;;;;;;5073871;28;20227;-66
2022/03/29 02:39:18;;;;;;;7.07;2.70;;;20.20;37.70;;;;;;5069405;28;20187;-68
2022/03/29 02:41:44;;;;;;;3.93;2.70;;;20.20;37.70;;;;;;5053427;28;20557;-69
2022/03/29 02:44:09;;;;;;;3.60;2.50;;;20.20;37.80;;;;;;5053423;28;20630;-67
2022/03/29 02:46:35;;;;;;;4.00;2.63;;;20.20;37.70;;;;;;5053329;28;20592;-66
2022/03/29 02:49:02;;;;;;;4.37;2.60;;;20.20;37.90;;;;;;5061952;28;20181;-69
2022/03/29 02:51:27;;;;;;;4.47;2.60;;;20.20;38.50;;;;;;5054093;28;20740;-69
2022/03/29 02:53:53;;;;;;;4.77;2.60;;;20.20;38.00;;;;;;5053234;28;20515;-68
2022/03/29 02:56:19;;;;;;;4.77;2.40;;;20.20;38.10;;;;;;5055306;28;20212;-67
2022/03/29 02:58:45;;;;;;;4.20;2.40;;;20.20;38.00;;;;;;5070372;28;20215;-66
2022/03/29 03:01:10;;;;;;;6.30;2.33;;;20.20;38.20;;;;;;5071981;28;20603;-67
2022/03/29 03:03:36;;;;;;;5.40;2.63;;;20.20;38.20;;;;;;5072815;28;20226;-66
2022/03/29 03:06:01;;;;;;;4.60;2.60;;;20.20;38.30;;;;;;5067090;28;20676;-68
2022/03/29 03:08:27;;;;;;;6.37;2.80;;;20.20;38.20;;;;;;5070328;28;20653;-66
2022/03/29 03:10:53;;;;;;;4.70;3.27;;;20.20;38.30;;;;;;5052977;28;20201;-66
2022/03/29 03:13:18;;;;;;;4.00;2.37;;;20.20;38.40;;;;;;5052716;28;20187;-67
2022/03/29 03:15:44;;;;;;;4.00;2.53;;;20.20;38.50;;;;;;5052419;28;20201;-66
2022/03/29 03:18:10;;;;;;;4.83;2.60;;;20.10;38.50;;;;;;5062159;28;20182;-69
2022/03/29 03:20:36;;;;;;;3.50;2.13;;;20.20;38.50;;;;;;5058716;28;20625;-68
2022/03/29 03:23:02;;;;;;;4.70;2.53;;;20.20;38.40;;;;;;5052682;28;20451;-67
2022/03/29 03:25:28;;;;;;;4.03;2.70;;;20.20;38.40;;;;;;5067319;28;20212;-68
2022/03/29 03:27:53;;;;;;;3.83;2.60;;;20.10;38.50;;;;;;5062891;28;20458;-67
2022/03/29 03:30:20;;;;;;;4.03;2.90;;;20.10;38.40;;;;;;5072048;28;20607;-68
2022/03/29 03:32:46;;;;;;;4.70;2.70;;;20.10;38.50;;;;;;5060102;28;20272;-68
2022/03/29 03:35:13;;;;;;;9.47;2.60;;;20.10;38.50;;;;;;5071623;28;21017;-67
2022/03/29 03:37:39;;;;;;;5.47;2.70;;;20.20;38.80;;;;;;5071450;28;20929;-66
2022/03/29 03:40:08;;;;;;;4.90;2.70;;;20.20;39.00;;;;;;5071870;28;20414;-65
2022/03/29 03:42:35;;;;;;;4.57;2.83;;;20.20;39.10;;;;;;5071827;28;20439;-65
2022/03/29 03:45:02;;;;;;;15.73;2.87;;;20.20;39.20;;;;;;5068547;28;20514;-66
2022/03/29 03:47:28;;;;;;;5.23;2.90;;;20.20;38.90;;;;;;5067788;28;20832;-66
2022/03/29 03:49:54;;;;;;;4.60;2.73;;;20.20;39.60;;;;;;5069970;28;20465;-65
2022/03/29 03:52:19;;;;;;;4.73;2.63;;;20.20;39.10;;;;;;5071524;28;20220;-65
2022/03/29 03:54:46;;;;;;;4.40;2.47;;;20.20;39.20;;;;;;5068838;28;20849;-65
2022/03/29 03:57:12;;;;;;;4.43;2.30;;;20.20;39.10;;;;;;5059778;28;20359;-65
2022/03/29 03:59:37;;;;;;;4.40;2.50;;;20.20;39.10;;;;;;5055476;28;20427;-68
2022/03/29 04:02:03;;;;;;;5.70;2.80;;;20.20;39.20;;;;;;5071652;28;20827;-66
2022/03/29 04:04:29;;;;;;;4.17;2.50;;;20.20;39.10;;;;;;5070197;28;20192;-67
2022/03/29 04:06:55;;;;;;;4.83;2.77;;;20.30;39.20;;;;;;5071616;28;20435;-66
2022/03/29 04:09:21;;;;;;;4.53;2.90;;;20.30;39.10;;;;;;5052702;28;20430;-69
2022/03/29 04:11:48;;;;;;;5.23;2.50;;;20.30;39.00;;;;;;5052770;28;20451;-67
2022/03/29 04:14:13;;;;;;;6.97;2.70;;;20.40;39.00;;;;;;5052280;28;20230;-69
2022/03/29 04:16:39;;;;;;;3.80;2.50;;;20.40;38.90;;;;;;5061930;28;20458;-67
2022/03/29 04:19:05;;;;;;;6.33;3.23;;;20.40;39.00;;;;;;5069573;28;20188;-67
2022/03/29 04:21:30;;;;;;;7.00;3.23;;;20.50;38.80;;;;;;5063271;28;20197;-68
2022/03/29 04:23:57;;;;;;;9.83;3.43;;;20.50;38.90;;;;;;5059193;28;20263;-67
2022/03/29 04:26:23;;;;;;;6.60;3.70;;;20.50;39.50;;;;;;5060244;28;20176;-66
2022/03/29 04:28:48;;;;;;;8.17;4.37;;;20.60;38.80;;;;;;5059231;28;20438;-67
2022/03/29 04:31:14;;;;;;;9.73;5.53;;;20.60;38.70;;;;;;5058437;28;20259;-66
2022/03/29 04:33:40;;;;;;;9.10;5.40;;;20.60;38.60;;;;;;5060270;28;20183;-66
2022/03/29 04:36:06;;;;;;;11.60;5.40;;;20.60;38.40;;;;;;5069786;28;20196;-66
2022/03/29 04:38:32;;;;;;;12.20;5.57;;;20.70;38.60;;;;;;5053403;28;20474;-66
2022/03/29 04:40:58;;;;;;;11.03;6.57;;;20.70;38.50;;;;;;5049920;28;20435;-67
2022/03/29 04:43:24;;;;;;;11.83;5.70;;;20.70;38.50;;;;;;5049567;28;20176;-66
2022/03/29 04:45:50;;;;;;;20.17;6.00;;;20.70;39.10;;;;;;5049448;28;20423;-67
2022/03/29 04:48:15;;;;;;;14.73;5.83;;;20.70;39.30;;;;;;5049826;28;20180;-68
2022/03/29 04:50:41;;;;;;;16.97;8.03;;;20.70;38.90;;;;;;5049247;28;20197;-66
2022/03/29 04:53:10;;;;;;;22.30;7.53;;;20.70;39.10;;;;;;5049927;28;20533;-66
2022/03/29 04:55:36;;;;;;;32.23;8.03;;;20.70;39.00;;;;;;5050143;28;20208;-66
2022/03/29 04:58:02;;;;;;;12.90;7.40;;;20.70;39.00;;;;;;5051409;28;20418;-66
2022/03/29 05:00:28;;;;;;;18.60;7.93;;;20.70;39.00;;;;;;5050812;28;20423;-66
2022/03/29 05:02:53;;;;;;;16.67;7.13;;;20.70;38.90;;;;;;5051239;28;20588;-65
2022/03/29 05:05:19;;;;;;;14.70;7.57;;;20.70;38.90;;;;;;5052663;28;20503;-66
2022/03/29 05:07:46;;;;;;;18.83;8.57;;;20.70;38.80;;;;;;5051236;28;20185;-66
2022/03/29 05:10:14;;;;;;;19.10;7.60;;;20.80;38.80;;;;;;5052167;28;20256;-67
2022/03/29 05:12:43;;;;;;;15.07;7.97;;;20.80;38.90;;;;;;5051144;28;20478;-66
2022/03/29 05:15:10;;;;;;;14.80;7.33;;;20.80;38.90;;;;;;5051061;28;20866;-66
2022/03/29 05:17:36;;;;;;;13.63;7.70;;;20.80;38.80;;;;;;5052445;28;20438;-66
2022/03/29 05:20:06;;;;;;;15.00;7.80;;;20.70;38.70;;;;;;5050693;28;20415;-67
2022/03/29 05:22:32;;;;;;;12.43;8.20;;;20.70;38.90;;;;;;5050954;28;20427;-65
2022/03/29 05:24:58;;;;;;;16.00;7.23;;;20.70;38.80;;;;;;5051005;28;20518;-67
2022/03/29 05:27:24;;;;;;;15.30;7.20;;;20.70;38.70;;;;;;5054735;28;20173;-65
2022/03/29 05:29:49;;;;;;;14.10;7.50;;;20.70;39.00;;;;;;5054473;28;20173;-65
2022/03/29 05:32:18;;;;;;;16.50;6.83;;;20.70;38.90;;;;;;5054669;28;20197;-65
2022/03/29 05:34:45;;;;;;;13.37;6.43;;;20.70;39.30;;;;;;5054636;28;20697;-65
2022/03/29 05:37:11;;;;;;;13.27;7.40;;;20.70;38.60;;;;;;5054657;28;20411;-65
2022/03/29 05:39:37;;;;;;;12.80;7.17;;;20.70;38.80;;;;;;5054308;28;20738;-66
2022/03/29 05:42:03;;;;;;;13.40;7.47;;;20.70;38.70;;;;;;5054565;28;20193;-67
2022/03/29 05:44:28;;;;;;;14.07;7.20;;;20.70;38.50;;;;;;5054514;28;20181;-67
2022/03/29 05:49:39;;;;;;;19.97;7.00;;;20.70;38.70;;;;;;5055436;28;20272;-65
2022/03/29 05:52:05;;;;;;;13.20;7.10;;;20.70;38.60;;;;;;5054237;28;20469;-67
2022/03/29 05:54:31;;;;;;;12.50;7.27;;;20.80;38.50;;;;;;5054215;28;20808;-68
2022/03/29 05:56:56;;;;;;;13.03;6.43;;;20.70;38.60;;;;;;5054320;28;20244;-66
2022/03/29 05:59:22;;;;;;;13.83;6.90;;;20.70;38.70;;;;;;5053850;28;20254;-66
2022/03/29 06:01:48;;;;;;;12.33;7.00;;;20.70;38.50;;;;;;5054095;28;20235;-66
2022/03/29 06:04:13;;;;;;;12.23;6.83;;;20.70;38.70;;;;;;5054152;28;20170;-67
2022/03/29 06:06:40;;;;;;;11.47;6.57;;;20.70;38.60;;;;;;5054213;28;20173;-67
2022/03/29 06:09:06;;;;;;;12.63;7.03;;;20.70;38.60;;;;;;5053679;28;20188;-65
2022/03/29 06:11:32;;;;;;;13.73;6.77;;;20.70;38.40;;;;;;5053984;28;20436;-67
2022/03/29 06:13:58;;;;;;;15.43;7.77;;;20.70;38.40;;;;;;5053934;28;20408;-67
2022/03/29 06:16:25;;;;;;;11.20;6.97;;;20.70;38.50;;;;;;5056790;28;20607;-66
2022/03/29 06:18:51;;;;;;;15.43;7.10;;;20.70;38.50;;;;;;5065512;28;20407;-66
2022/03/29 06:21:18;;;;;;;24.30;7.20;;;20.70;38.40;;;;;;5074993;28;20500;-65
2022/03/29 06:23:44;;;;;;;12.10;7.10;;;20.70;38.50;;;;;;5059491;28;20434;-66
2022/03/29 06:26:09;;;;;;;16.27;7.10;;;20.70;38.40;;;;;;5066267;28;20444;-67
2022/03/29 06:28:35;;;;;;;13.83;6.20;;;20.70;38.30;;;;;;5054642;28;20596;-66
2022/03/29 06:31:01;;;;;;;12.40;7.00;;;20.70;37.90;;;;;;5065132;28;20254;-66
2022/03/29 06:33:26;;;;;;;13.73;6.97;;;20.70;38.00;;;;;;5053601;28;20181;-67
2022/03/29 06:35:52;;;;;;;16.37;6.53;;;20.70;38.00;;;;;;5067496;28;20270;-65
2022/03/29 06:38:21;;;;;;;10.33;6.03;;;20.70;37.90;;;;;;5065466;28;20634;-65
2022/03/29 06:40:47;;;;;;;11.83;6.20;;;20.70;38.50;;;;;;5057853;28;20193;-65
2022/03/29 06:43:14;;;;;;;10.63;6.07;;;20.70;38.60;;;;;;5064222;28;20411;-64
2022/03/29 06:45:40;;;;;;;11.30;6.60;;;20.80;38.30;;;;;;5068695;28;20930;-65
2022/03/29 06:48:07;;;;;;;22.73;6.47;;;20.70;38.10;;;;;;5056249;28;20430;-66
2022/03/29 06:50:33;;;;;;;12.07;6.47;;;20.80;38.20;;;;;;5052767;28;20916;-66
2022/03/29 06:52:59;;;;;;;13.40;5.60;;;20.70;38.00;;;;;;5053211;28;20430;-67
2022/03/29 06:55:26;;;;;;;16.63;6.13;;;20.70;38.20;;;;;;5052993;28;20201;-65
2022/03/29 06:57:53;;;;;;;9.07;5.80;;;20.70;38.00;;;;;;5054699;28;20447;-66
2022/03/29 07:00:20;;;;;;;8.30;5.23;;;20.70;38.10;;;;;;5059656;28;20523;-66
2022/03/29 07:02:46;;;;;;;13.00;6.20;;;20.70;38.00;;;;;;5073026;28;20476;-67
2022/03/29 07:05:12;;;;;;;11.53;5.77;;;20.70;38.30;;;;;;5064160;28;20423;-66
2022/03/29 07:07:38;;;;;;;13.10;6.40;;;20.70;38.00;;;;;;5061251;28;20965;-67
2022/03/29 07:13:02;;;;;;;11.20;5.60;;;20.70;38.00;;;;;;5055605;28;20633;-67
2022/03/29 07:15:28;;;;;;;8.67;5.47;;;20.80;38.40;;;;;;5069250;28;20516;-66
2022/03/29 07:17:54;;;;;;;10.50;5.47;;;20.80;38.10;;;;;;5052807;28;20777;-66
2022/03/29 07:20:21;;;;;;;11.60;6.13;;;20.80;38.10;;;;;;5058520;28;20518;-67
2022/03/29 07:22:48;;;;;;;8.63;5.83;;;20.80;38.00;;;;;;5064437;28;20423;-70
2022/03/29 07:25:16;;;;;;;19.00;5.50;;;20.80;38.00;;;;;;5053024;28;20424;-69
2022/03/29 07:27:42;;;;;;;8.20;5.33;;;20.80;38.00;;;;;;5062533;28;20423;-66
2022/03/29 07:30:10;;;;;;;10.67;6.10;;;20.80;38.60;;;;;;5064211;28;20438;-69
2022/03/29 07:32:47;;;;;;;11.77;5.87;;;20.80;37.80;;;;;;5072343;28;20938;-67
2022/03/29 07:35:14;;;;;;;12.03;5.10;;;20.90;38.10;;;;;;5072332;28;20479;-67
2022/03/29 07:37:40;;;;;;;9.27;5.40;;;20.90;37.90;;;;;;5072347;28;20417;-68
2022/03/29 07:40:08;;;;;;;9.90;5.30;;;20.90;37.70;;;;;;5071939;28;20430;-70
2022/03/29 07:42:35;;;;;;;11.77;5.20;;;20.90;38.00;;;;;;5072191;28;21590;-70
2022/03/29 07:45:03;;;;;;;10.87;5.40;;;20.90;37.80;;;;;;5072394;28;20444;-68
2022/03/29 07:47:29;;;;;;;14.60;5.10;;;21.00;37.70;;;;;;5071970;28;20418;-68
2022/03/29 07:49:55;;;;;;;11.70;4.87;;;21.00;37.70;;;;;;5071106;28;20472;-69
2022/03/29 07:52:21;;;;;;;8.93;4.90;;;21.00;37.50;;;;;;5071957;28;20484;-68
2022/03/29 07:54:47;;;;;;;8.07;4.90;;;21.00;37.60;;;;;;5072079;28;20504;-68
2022/03/29 07:57:12;;;;;;;6.87;4.53;;;21.00;37.70;;;;;;5072082;28;20184;-69
2022/03/29 07:59:38;;;;;;;9.07;5.37;;;21.00;37.30;;;;;;5071618;28;20333;-72
2022/03/29 08:02:09;;;;;;;11.20;4.87;;;21.00;36.90;;;;;;5072252;28;20192;-70
2022/03/29 08:04:34;;;;;;;13.27;5.17;;;21.00;36.80;;;;;;5071979;28;20656;-68
2022/03/29 08:07:00;;;;;;;7.40;4.90;;;20.90;36.70;;;;;;5071802;28;20439;-66
2022/03/29 08:09:27;;;;;;;11.80;5.07;;;20.90;36.40;;;;;;5071739;28;20186;-69
2022/03/29 08:11:53;;;;;;;11.53;4.80;;;20.90;36.10;;;;;;5071807;28;20204;-70
2022/03/29 08:14:19;;;;;;;11.03;5.73;;;20.90;36.10;;;;;;5071854;28;20983;-72
2022/03/29 08:16:46;;;;;;;9.57;4.57;;;20.90;36.00;;;;;;5071702;28;20465;-68
2022/03/29 08:19:11;;;;;;;8.30;4.60;;;20.90;35.80;;;;;;5071403;28;20410;-68
2022/03/29 08:21:52;;;;;;;8.20;4.83;;;20.90;36.10;;;;;;5071671;28;20442;-67
2022/03/29 08:24:23;;;;;;;7.93;4.93;;;20.90;36.10;;;;;;5071796;28;20184;-66
2022/03/29 08:26:54;;;;;;;10.87;4.27;;;20.90;35.60;;;;;;5071611;28;20422;-69
2022/03/29 08:29:23;;;;;;;6.00;3.93;;;20.90;35.60;;;;;;5071276;28;20413;-69
2022/03/29 08:31:49;;;;;;;7.20;4.50;;;20.90;36.10;;;;;;5071577;28;20443;-72
2022/03/29 08:34:17;;;;;;;13.30;4.23;;;20.90;36.00;;;;;;5071758;28;20419;-70
2022/03/29 08:36:43;;;;;;;6.63;4.43;;;21.00;36.60;;;;;;5071540;28;20458;-67
2022/03/29 08:39:10;;;;;;;7.37;3.83;;;21.00;36.80;;;;;;5071185;28;20432;-70
2022/03/29 08:41:38;;;;;;;7.40;3.83;;;21.00;36.50;;;;;;5071481;28;20435;-70
2022/03/29 08:44:06;;;;;;;12.10;3.80;;;21.00;37.40;;;;;;5071468;28;20476;-66
2022/03/29 08:46:38;;;;;;;9.03;4.60;;;21.10;36.60;;;;;;5071501;28;20454;-69
2022/03/29 08:49:05;;;;;;;5.77;3.83;;;21.10;36.40;;;;;;5071085;28;20422;-70
2022/03/29 08:51:30;;;;;;;10.10;4.00;;;21.10;36.40;;;;;;5071156;28;20458;-70
2022/03/29 08:53:56;;;;;;;9.93;3.90;;;21.20;36.60;;;;;;5071425;28;20476;-68
2022/03/29 08:56:22;;;;;;;19.03;4.23;;;21.20;36.40;;;;;;5071353;28;20208;-67
2022/03/29 08:58:48;;;;;;;8.17;4.40;;;21.30;36.70;;;;;;5071053;28;20465;-68
2022/03/29 09:01:14;;;;;;;10.70;4.63;;;21.30;36.20;;;;;;5074801;28;20193;-70
2022/03/29 09:03:39;;;;;;;9.07;4.10;;;21.40;36.50;;;;;;5075355;28;20173;-71
2022/03/29 09:06:09;;;;;;;6.90;3.90;;;21.40;36.80;;;;;;5075255;28;20180;-70
2022/03/29 09:08:43;;;;;;;4.83;3.73;;;21.40;36.70;;;;;;5074929;28;20232;-72
2022/03/29 09:11:08;;;;;;;6.20;3.43;;;21.40;36.70;;;;;;5075014;28;20442;-70
2022/03/29 09:13:34;;;;;;;6.60;3.57;;;21.40;36.80;;;;;;5075224;28;20403;-69
2022/03/29 09:16:02;;;;;;;7.27;3.67;;;21.40;36.70;;;;;;5075040;28;20204;-69
2022/03/29 09:18:29;;;;;;;9.23;4.43;;;21.40;36.90;;;;;;5074753;28;20414;-67
2022/03/29 09:21:16;;;;;;;5.77;3.27;;;21.40;36.80;;;;;;5074887;28;20890;-67
2022/03/29 09:23:43;;;;;;;8.27;3.77;;;21.50;36.70;;;;;;5051648;28;20494;-73
2022/03/29 09:26:26;;;;;;;7.27;3.70;;;21.50;36.80;;;;;;5052257;28;20419;-69
2022/03/29 09:28:52;;;;;;;7.20;3.50;;;21.50;36.70;;;;;;5052164;28;20849;-71
2022/03/29 09:31:20;;;;;;;10.57;3.40;;;21.60;36.80;;;;;;5052153;28;20514;-72
2022/03/29 09:33:46;;;;;;;6.47;3.83;;;21.60;36.80;;;;;;5052198;28;20181;-71
2022/03/29 09:36:20;;;;;;;8.63;3.47;;;21.60;36.80;;;;;;5052799;28;20462;-76
2022/03/29 09:38:48;;;;;;;5.97;3.63;;;21.60;36.70;;;;;;5051864;28;20418;-69
2022/03/29 09:41:28;;;;;;;9.03;3.27;;;21.70;36.60;;;;;;5052464;28;20481;-72
2022/03/29 09:44:03;;;;;;;7.50;3.57;;;21.70;36.60;;;;;;5051475;28;20419;-73
2022/03/29 09:46:29;;;;;;;4.77;3.30;;;21.70;36.60;;;;;;5052263;28;21033;-68
2022/03/29 09:49:03;;;;;;;6.47;3.60;;;21.70;36.70;;;;;;5052315;28;20420;-73
2022/03/29 09:51:29;;;;;;;4.83;3.37;;;21.70;36.70;;;;;;5052113;28;20537;-71
2022/03/29 09:53:59;;;;;;;4.60;3.20;;;21.70;36.80;;;;;;5051741;28;20979;-70
2022/03/29 09:56:28;;;;;;;5.40;3.70;;;21.70;36.70;;;;;;5051759;28;20451;-70
2022/03/29 09:59:10;;;;;;;5.63;2.93;;;21.70;36.70;;;;;;5051660;28;20423;-68
2022/03/29 10:01:55;;;;;;;11.73;3.60;;;21.70;36.70;;;;;;5050997;28;20431;-72
2022/03/29 10:04:23;;;;;;;4.80;3.10;;;21.80;36.70;;;;;;5051973;28;20502;-69
2022/03/29 10:06:52;;;;;;;5.50;3.33;;;21.80;36.70;;;;;;5052107;28;20427;-67
2022/03/29 10:09:33;;;;;;;5.60;3.67;;;21.80;36.80;;;;;;5051129;28;20427;-69
2022/03/29 10:11:59;;;;;;;4.50;3.03;;;21.70;36.90;;;;;;5050234;28;20439;-68
2022/03/29 10:14:27;;;;;;;7.90;3.10;;;21.70;36.90;;;;;;5050908;28;20420;-69
2022/03/29 10:16:56;;;;;;;6.77;3.57;;;21.70;37.20;;;;;;5051581;28;20459;-67
2022/03/29 10:19:22;;;;;;;7.67;3.43;;;21.70;37.90;;;;;;5051135;28;20526;-70
2022/03/29 10:21:48;;;;;;;5.50;3.20;;;21.60;37.20;;;;;;5051396;28;20443;-68
2022/03/29 10:24:18;;;;;;;7.93;2.93;;;21.60;37.40;;;;;;5051434;28;20439;-68
2022/03/29 10:26:48;;;;;;;6.33;3.00;;;21.70;37.40;;;;;;5052208;28;20423;-72
2022/03/29 10:29:15;;;;;;;5.30;3.00;;;21.70;37.50;;;;;;5050440;28;20423;-67
2022/03/29 10:32:05;;;;;;;5.30;3.30;;;21.60;37.50;;;;;;5065882;28;20443;-70
2022/03/29 10:34:37;;;;;;;4.73;2.80;;;21.60;37.60;;;;;;5070981;28;20426;-69
2022/03/29 10:37:21;;;;;;;10.27;3.50;;;21.60;37.70;;;;;;5071038;28;20466;-67
2022/03/29 10:39:50;;;;;;;6.13;3.40;;;21.60;37.80;;;;;;5070320;28;20829;-68
2022/03/29 10:42:31;;;;;;;7.20;3.80;;;21.60;37.80;;;;;;5070316;28;20466;-72
2022/03/29 10:44:57;;;;;;;6.50;3.60;;;21.60;37.90;;;;;;5070520;28;20411;-71
2022/03/29 10:47:28;;;;;;;7.10;3.07;;;21.60;37.80;;;;;;5070838;28;20429;-69
2022/03/29 10:49:53;;;;;;;8.70;2.80;;;21.60;38.00;;;;;;5070257;28;20891;-73
2022/03/29 10:52:22;;;;;;;8.17;3.20;;;21.70;37.80;;;;;;5069987;28;20454;-72
2022/03/29 10:54:49;;;;;;;9.73;3.50;;;21.70;37.80;;;;;;5070482;28;20184;-71
2022/03/29 10:57:24;;;;;;;7.80;3.10;;;21.80;37.80;;;;;;5069455;28;20493;-70
2022/03/29 10:59:58;;;;;;;9.03;3.07;;;21.70;38.10;;;;;;5069383;28;20410;-70
2022/03/29 11:02:25;;;;;;;4.20;2.77;;;21.70;38.10;;;;;;5070575;28;20473;-69
2022/03/29 11:05:11;;;;;;;13.50;3.07;;;21.70;38.10;;;;;;5069894;28;20413;-72
2022/03/29 11:07:59;;;;;;;9.10;3.20;;;21.80;37.80;;;;;;5072116;28;20414;-69
2022/03/29 11:10:38;;;;;;;6.70;3.33;;;21.80;37.60;;;;;;5070636;28;20414;-69
2022/03/29 11:13:31;;;;;;;10.23;2.97;;;21.80;37.40;;;;;;5072028;28;20729;-67
2022/03/29 11:16:01;;;;;;;8.70;3.40;;;21.80;37.50;;;;;;5070269;28;20542;-71
2022/03/29 11:18:37;;;;;;;8.20;3.30;;;21.80;38.00;;;;;;5070636;28;20430;-72
2022/03/29 11:21:03;;;;;;;8.70;3.00;;;21.80;37.30;;;;;;5069909;28;20434;-70
2022/03/29 11:23:31;;;;;;;10.83;3.20;;;21.80;37.90;;;;;;5070065;28;21020;-74
2022/03/29 11:25:57;;;;;;;8.03;3.43;;;21.80;38.70;;;;;;5070320;28;20466;-69
2022/03/29 11:28:22;;;;;;;9.67;3.40;;;21.80;37.80;;;;;;5071422;28;20806;-73
2022/03/29 11:30:54;;;;;;;16.73;4.23;;;21.80;37.80;;;;;;5070999;28;20199;-73
2022/03/29 11:33:33;;;;;;;12.53;3.13;;;21.90;37.80;;;;;;5068930;28;20229;-73
2022/03/29 11:36:00;;;;;;;5.97;3.00;;;21.80;37.60;;;;;;5068804;28;20461;-74
2022/03/29 11:38:33;;;;;;;12.57;2.70;;;21.80;37.50;;;;;;5068627;28;20421;-67
2022/03/29 11:41:01;;;;;;;5.07;2.90;;;21.80;37.60;;;;;;5067361;28;20435;-74
2022/03/29 11:43:26;;;;;;;7.13;3.10;;;21.80;37.60;;;;;;5067771;28;20418;-70
2022/03/29 11:45:54;;;;;;;6.60;3.40;;;21.80;37.50;;;;;;5067857;28;20418;-71
2022/03/29 11:48:21;;;;;;;7.17;2.83;;;21.80;37.50;;;;;;5069368;28;20215;-71
2022/03/29 11:50:49;;;;;;;6.93;2.80;;;21.80;37.40;;;;;;5069858;28;20490;-72
2022/03/29 11:53:26;;;;;;;10.67;3.20;;;21.90;37.40;;;;;;5069535;28;20426;-74
2022/03/29 11:56:18;;;;;;;10.00;2.83;;;21.80;37.40;;;;;;5069469;28;20607;-73
2022/03/29 11:58:53;;;;;;;7.70;2.77;;;21.80;37.40;;;;;;5069656;28;20411;-73
2022/03/29 12:01:33;;;;;;;6.00;2.93;;;21.90;37.40;;;;;;5069057;28;20437;-68
2022/03/29 12:04:04;;;;;;;7.03;3.30;;;21.80;37.40;;;;;;5068657;28;20406;-71
2022/03/29 12:06:47;;;;;;;6.83;3.07;;;21.80;37.40;;;;;;5069307;28;20798;-71
2022/03/29 12:09:20;;;;;;;5.80;2.60;;;21.90;37.40;;;;;;5069170;28;20406;-73
2022/03/29 12:11:45;;;;;;;6.40;2.90;;;21.90;37.30;;;;;;5069296;28;20469;-70
2022/03/29 12:14:20;;;;;;;5.60;2.97;;;21.90;37.30;;;;;;5070378;28;20434;-74
2022/03/29 12:16:51;;;;;;;7.10;3.20;;;21.90;37.30;;;;;;5068848;28;20207;-72
2022/03/29 12:19:25;;;;;;;12.37;3.30;;;21.90;37.30;;;;;;5067345;28;20415;-68
2022/03/29 12:21:56;;;;;;;9.67;2.70;;;21.90;37.30;;;;;;5066831;28;20680;-71
2022/03/29 12:24:23;;;;;;;11.20;2.50;;;21.90;37.20;;;;;;5066660;28;20442;-72
2022/03/29 12:26:56;;;;;;;6.83;3.10;;;21.90;37.20;;;;;;5066755;28;20418;-68
2022/03/29 12:29:26;;;;;;;4.73;2.73;;;21.90;37.20;;;;;;5066572;28;20906;-72
2022/03/29 12:31:54;;;;;;;4.23;2.53;;;21.90;37.30;;;;;;5066208;28;20512;-67
2022/03/29 12:34:26;;;;;;;5.30;2.57;;;21.90;37.20;;;;;;5067194;28;20442;-69
2022/03/29 12:36:56;;;;;;;5.10;2.97;;;21.90;37.30;;;;;;5068488;28;20596;-68
2022/03/29 12:39:22;;;;;;;6.43;2.73;;;21.90;37.20;;;;;;5070323;28;20406;-74
2022/03/29 12:41:53;;;;;;;5.70;2.43;;;21.90;37.30;;;;;;5069706;28;20419;-75
2022/03/29 12:44:38;;;;;;;3.80;2.07;;;21.90;37.20;;;;;;5069965;28;20419;-70
2022/03/29 12:47:05;;;;;;;5.03;2.50;;;21.90;37.10;;;;;;5069971;28;20418;-69
2022/03/29 12:49:33;;;;;;;3.40;2.00;;;21.90;37.20;;;;;;5068515;28;20410;-71
2022/03/29 12:52:03;;;;;;;5.17;2.63;;;21.90;37.20;;;;;;5067948;28;20458;-73
2022/03/29 12:54:34;;;;;;;3.63;2.70;;;21.90;37.20;;;;;;5067936;28;20760;-73
2022/03/29 12:57:01;;;;;;;4.77;2.20;;;21.90;37.20;;;;;;5068189;28;20462;-73